Time;durP1;ratioP1;P1;durP2;ratioP2;P2;SDS_P1;SDS_P2;PMS_P1;PMS_P2;Temp;Humidity;BMP_temperature;BMP_pressure;BME280_temperature;BME280_humidity;BME280_pressure;Samples;Min_cycle;Max_cycle;Signal;HPM_P1;HPM_P2
2021/05/16 00:01:04;;;;;;;16.37;14.87;;;15.30;99.90;;;;;;5033697;28;20427;-66
2021/05/16 00:03:30;;;;;;;17.47;15.70;;;15.30;99.90;;;;;;5033501;28;20202;-68
2021/05/16 00:05:56;;;;;;;17.13;15.37;;;15.30;99.90;;;;;;5033580;28;20182;-67
2021/05/16 00:08:21;;;;;;;18.83;17.00;;;15.30;99.90;;;;;;5033262;28;20995;-69
2021/05/16 00:10:47;;;;;;;17.80;16.10;;;15.40;99.90;;;;;;5033556;28;20214;-69
2021/05/16 00:13:13;;;;;;;17.87;16.10;;;15.40;99.90;;;;;;5033425;28;20201;-67
2021/05/16 00:15:39;;;;;;;17.63;16.00;;;15.30;99.90;;;;;;5032134;28;20427;-69
2021/05/16 00:18:05;;;;;;;20.40;16.50;;;15.20;99.90;;;;;;5033357;28;20444;-67
2021/05/16 00:20:33;;;;;;;17.77;15.97;;;15.20;99.90;;;;;;5033368;28;20410;-70
2021/05/16 00:23:00;;;;;;;18.70;16.83;;;15.10;99.90;;;;;;5033319;28;20478;-69
2021/05/16 00:25:27;;;;;;;19.33;17.43;;;15.10;99.90;;;;;;5033341;28;20457;-70
2021/05/16 00:27:53;;;;;;;19.93;17.93;;;15.20;99.90;;;;;;5033301;28;20463;-69
2021/05/16 00:30:21;;;;;;;18.93;16.93;;;15.20;99.90;;;;;;5033122;28;20404;-67
2021/05/16 00:32:47;;;;;;;18.60;16.90;;;15.30;99.90;;;;;;5033171;28;20506;-68
2021/05/16 00:35:15;;;;;;;20.80;18.70;;;15.30;99.90;;;;;;5033160;28;20897;-70
2021/05/16 00:37:42;;;;;;;19.07;17.27;;;15.30;99.90;;;;;;5037398;28;20479;-67
2021/05/16 00:40:08;;;;;;;19.87;17.87;;;15.30;99.90;;;;;;5069017;28;20412;-66
2021/05/16 00:42:34;;;;;;;22.57;20.17;;;15.30;99.90;;;;;;5037325;28;20465;-67
2021/05/16 00:45:01;;;;;;;23.13;19.93;;;15.20;99.90;;;;;;5036925;28;20491;-68
2021/05/16 00:47:27;;;;;;;26.67;20.23;;;15.20;99.90;;;;;;5037315;28;20451;-67
2021/05/16 00:49:55;;;;;;;26.93;19.67;;;15.20;99.90;;;;;;5068855;28;20789;-67
2021/05/16 00:52:22;;;;;;;21.33;19.03;;;15.20;99.90;;;;;;5068951;28;20526;-68
2021/05/16 00:54:48;;;;;;;21.63;19.10;;;15.20;99.90;;;;;;5036770;28;20424;-68
2021/05/16 00:57:14;;;;;;;21.63;19.03;;;15.30;99.90;;;;;;5036870;28;20513;-69
2021/05/16 00:59:40;;;;;;;21.90;19.70;;;15.20;99.90;;;;;;5036668;28;20975;-67
2021/05/16 01:02:05;;;;;;;22.40;20.13;;;15.10;99.90;;;;;;5036920;28;20213;-68
2021/05/16 01:04:31;;;;;;;23.23;20.83;;;15.10;99.90;;;;;;5036648;28;20186;-69
2021/05/16 01:06:57;;;;;;;23.90;21.60;;;15.20;99.90;;;;;;5036654;28;20190;-69
2021/05/16 01:09:24;;;;;;;22.07;19.87;;;15.30;99.90;;;;;;5036460;28;20186;-67
2021/05/16 01:11:51;;;;;;;22.40;20.00;;;15.20;99.90;;;;;;5036716;28;20470;-68
2021/05/16 01:14:23;;;;;;;22.40;20.20;;;15.30;99.90;;;;;;5035068;28;20462;-70
2021/05/16 01:16:49;;;;;;;23.27;19.40;;;15.30;99.90;;;;;;5036613;28;20979;-69
2021/05/16 01:19:14;;;;;;;23.07;20.67;;;15.30;99.90;;;;;;5035031;28;20469;-69
2021/05/16 01:21:41;;;;;;;24.47;21.87;;;15.30;99.90;;;;;;5036585;28;20197;-70
2021/05/16 01:24:17;;;;;;;22.43;20.17;;;15.30;99.90;;;;;;5036304;28;20171;-67
2021/05/16 01:26:45;;;;;;;22.50;20.20;;;15.20;99.90;;;;;;5036433;28;20944;-67
2021/05/16 01:29:14;;;;;;;22.83;20.60;;;15.20;99.90;;;;;;5036098;28;20412;-67
2021/05/16 01:31:40;;;;;;;24.93;22.53;;;15.20;99.90;;;;;;5036283;28;20487;-69
2021/05/16 01:34:06;;;;;;;22.97;20.57;;;15.30;99.90;;;;;;5036066;28;20414;-69
2021/05/16 01:36:35;;;;;;;23.40;20.90;;;15.20;99.90;;;;;;5036237;28;20830;-67
2021/05/16 01:39:03;;;;;;;22.47;20.13;;;15.20;99.90;;;;;;5035937;28;20495;-69
2021/05/16 01:41:29;;;;;;;23.10;20.80;;;15.20;99.90;;;;;;5036048;28;20962;-68
2021/05/16 01:43:55;;;;;;;25.57;22.87;;;15.20;99.90;;;;;;5035796;28;20411;-70
2021/05/16 01:46:21;;;;;;;24.77;22.17;;;15.20;99.90;;;;;;5035960;28;20177;-69
2021/05/16 01:48:47;;;;;;;24.93;21.80;;;15.30;99.90;;;;;;5035196;28;20404;-68
2021/05/16 01:51:13;;;;;;;23.73;21.33;;;15.30;99.90;;;;;;5035756;28;20185;-67
2021/05/16 01:53:40;;;;;;;23.27;20.97;;;15.30;99.90;;;;;;5035672;28;20315;-68
2021/05/16 01:56:07;;;;;;;22.60;20.33;;;15.20;99.90;;;;;;5035687;28;20459;-67
2021/05/16 01:58:35;;;;;;;23.93;21.33;;;15.20;99.90;;;;;;5035516;28;20515;-67
2021/05/16 02:01:02;;;;;;;22.70;20.50;;;15.20;99.90;;;;;;5067560;28;20773;-69
2021/05/16 02:03:30;;;;;;;22.73;20.33;;;15.00;99.90;;;;;;5067465;28;20501;-67
2021/05/16 02:05:56;;;;;;;23.23;20.57;;;14.90;99.90;;;;;;5035501;28;21007;-67
2021/05/16 02:08:23;;;;;;;25.07;21.93;;;14.90;99.90;;;;;;5035275;28;20467;-67
2021/05/16 02:10:48;;;;;;;23.30;20.97;;;14.90;99.90;;;;;;5035410;28;20419;-67
2021/05/16 02:13:14;;;;;;;24.83;21.20;;;14.90;99.90;;;;;;5035208;28;20439;-69
2021/05/16 02:15:40;;;;;;;24.13;21.53;;;14.80;99.90;;;;;;5035594;28;20525;-67
2021/05/16 02:18:08;;;;;;;27.10;22.30;;;14.80;99.90;;;;;;5035034;28;20447;-68
2021/05/16 02:20:34;;;;;;;24.77;21.77;;;14.80;99.90;;;;;;5035207;28;20167;-68
2021/05/16 02:23:00;;;;;;;23.00;20.47;;;14.80;99.90;;;;;;5035038;28;20857;-69
2021/05/16 02:25:26;;;;;;;23.23;20.87;;;14.80;99.90;;;;;;5035007;28;20821;-68
2021/05/16 02:27:52;;;;;;;23.30;20.90;;;14.80;99.90;;;;;;5033678;28;20474;-67
2021/05/16 02:30:18;;;;;;;25.00;22.40;;;14.90;99.90;;;;;;5034873;28;20756;-68
2021/05/16 02:32:44;;;;;;;24.20;21.57;;;14.90;99.90;;;;;;5066877;28;20229;-68
2021/05/16 02:35:12;;;;;;;24.90;21.63;;;15.00;99.90;;;;;;5034868;28;20402;-67
2021/05/16 02:37:39;;;;;;;25.37;21.37;;;15.10;99.90;;;;;;5066933;28;20907;-69
2021/05/16 02:40:06;;;;;;;28.10;22.47;;;15.10;99.90;;;;;;5034801;28;20498;-67
2021/05/16 02:42:31;;;;;;;27.00;23.23;;;15.10;99.90;;;;;;5035079;28;20803;-67
2021/05/16 02:44:57;;;;;;;28.00;23.90;;;15.10;99.90;;;;;;5034694;28;20407;-70
2021/05/16 02:47:23;;;;;;;26.70;22.40;;;15.10;99.90;;;;;;5035040;28;20201;-68
2021/05/16 02:49:49;;;;;;;24.07;21.57;;;15.10;99.90;;;;;;5034672;28;20170;-68
2021/05/16 02:52:15;;;;;;;26.07;22.60;;;15.10;99.90;;;;;;5066247;28;20202;-68
2021/05/16 02:54:40;;;;;;;24.87;22.30;;;15.10;99.90;;;;;;5034595;28;20423;-67
2021/05/16 02:57:06;;;;;;;25.07;22.37;;;15.10;99.90;;;;;;5034736;28;20510;-68
2021/05/16 02:59:32;;;;;;;24.80;21.93;;;15.00;99.90;;;;;;5048904;28;20171;-69
2021/05/16 03:01:57;;;;;;;26.47;20.87;;;15.00;99.90;;;;;;5033157;28;20202;-67
2021/05/16 03:04:23;;;;;;;24.73;21.60;;;14.90;99.90;;;;;;5034283;28;20412;-68
2021/05/16 03:06:49;;;;;;;22.80;20.40;;;14.90;99.90;;;;;;5033107;28;20202;-68
2021/05/16 03:09:15;;;;;;;23.33;20.93;;;14.90;99.90;;;;;;5034063;28;20228;-69
2021/05/16 03:11:40;;;;;;;23.87;21.17;;;14.90;99.90;;;;;;5066306;28;20523;-67
2021/05/16 03:14:08;;;;;;;23.80;21.30;;;14.90;99.90;;;;;;5034183;28;20184;-68
2021/05/16 03:16:34;;;;;;;23.97;21.47;;;14.90;99.90;;;;;;5034215;28;20214;-69
2021/05/16 03:18:59;;;;;;;23.17;20.67;;;14.90;99.90;;;;;;5034098;28;20499;-67
2021/05/16 03:21:25;;;;;;;23.90;21.30;;;14.90;99.90;;;;;;5033899;28;20415;-67
2021/05/16 03:23:51;;;;;;;24.47;20.70;;;15.00;99.90;;;;;;5034054;28;20182;-68
2021/05/16 03:26:16;;;;;;;23.03;20.63;;;15.10;99.90;;;;;;5032721;28;20244;-67
2021/05/16 03:28:42;;;;;;;24.47;21.63;;;15.10;99.90;;;;;;5032769;28;20710;-70
2021/05/16 03:31:07;;;;;;;23.03;20.60;;;15.10;99.90;;;;;;5033869;28;20185;-69
2021/05/16 03:33:33;;;;;;;23.60;21.10;;;15.10;99.90;;;;;;5033811;28;20190;-69
2021/05/16 03:35:58;;;;;;;24.50;22.00;;;15.10;99.90;;;;;;5033883;28;20171;-67
2021/05/16 03:38:24;;;;;;;23.40;20.90;;;15.10;99.90;;;;;;5033778;28;20233;-67
2021/05/16 03:40:51;;;;;;;24.20;21.40;;;15.10;99.90;;;;;;5032504;28;20178;-66
2021/05/16 03:43:18;;;;;;;24.23;21.67;;;15.10;99.90;;;;;;5033607;28;20206;-67
2021/05/16 03:45:44;;;;;;;25.03;22.43;;;15.10;99.90;;;;;;5049114;28;20415;-68
2021/05/16 03:48:10;;;;;;;26.07;22.20;;;15.10;99.90;;;;;;5033600;28;20999;-69
2021/05/16 03:50:35;;;;;;;26.17;23.20;;;15.20;99.90;;;;;;5032473;28;20232;-68
2021/05/16 03:53:01;;;;;;;27.13;22.37;;;15.10;99.90;;;;;;5033602;28;20191;-68
2021/05/16 03:55:27;;;;;;;25.47;22.83;;;15.00;99.90;;;;;;5033742;28;20171;-66
2021/05/16 03:57:52;;;;;;;24.40;21.97;;;15.00;99.90;;;;;;5033472;28;20305;-68
2021/05/16 04:00:19;;;;;;;27.77;24.83;;;15.00;99.90;;;;;;5033474;28;20198;-70
2021/05/16 04:02:45;;;;;;;30.10;25.70;;;15.00;99.90;;;;;;5033588;28;20210;-68
2021/05/16 04:05:12;;;;;;;26.50;23.53;;;15.10;99.90;;;;;;5032255;28;20430;-68
2021/05/16 04:07:38;;;;;;;27.67;24.70;;;15.10;99.90;;;;;;5032328;28;20999;-66
2021/05/16 04:10:05;;;;;;;29.33;26.30;;;15.00;99.90;;;;;;5033490;28;20408;-69
2021/05/16 04:12:31;;;;;;;25.43;22.80;;;15.00;99.90;;;;;;5037650;28;20202;-67
2021/05/16 04:14:56;;;;;;;28.67;24.07;;;15.10;99.90;;;;;;5037439;28;21004;-67
2021/05/16 04:17:22;;;;;;;25.37;22.30;;;15.00;99.90;;;;;;5037806;28;20552;-67
2021/05/16 04:19:48;;;;;;;31.30;25.30;;;14.90;99.90;;;;;;5037402;28;20190;-68
2021/05/16 04:22:13;;;;;;;25.43;22.70;;;14.90;99.90;;;;;;5036123;28;20725;-69
2021/05/16 04:24:39;;;;;;;25.77;23.07;;;14.90;99.90;;;;;;5069401;28;20182;-68
2021/05/16 04:27:05;;;;;;;24.23;21.40;;;14.90;99.90;;;;;;5037702;28;20202;-68
2021/05/16 04:29:30;;;;;;;27.30;23.53;;;14.80;99.90;;;;;;5036010;28;20182;-69
2021/05/16 04:31:56;;;;;;;26.10;23.00;;;14.90;99.90;;;;;;5037408;28;20202;-67
2021/05/16 04:34:22;;;;;;;25.63;23.03;;;14.90;99.90;;;;;;5035870;28;20240;-69
2021/05/16 04:36:47;;;;;;;24.90;22.33;;;14.90;99.90;;;;;;5037350;28;20571;-68
2021/05/16 04:39:13;;;;;;;25.80;22.83;;;14.90;99.90;;;;;;5037044;28;20175;-69
2021/05/16 04:41:38;;;;;;;26.33;23.47;;;15.00;99.90;;;;;;5036964;28;20226;-68
2021/05/16 04:44:04;;;;;;;27.47;23.13;;;15.00;99.90;;;;;;5036963;28;20178;-68
2021/05/16 04:46:30;;;;;;;26.10;22.90;;;15.00;99.90;;;;;;5037031;28;20233;-70
2021/05/16 04:48:56;;;;;;;22.87;20.47;;;14.90;99.90;;;;;;5036876;28;20415;-69
2021/05/16 04:51:21;;;;;;;24.23;21.53;;;14.90;99.90;;;;;;5036912;28;20228;-67
2021/05/16 04:53:47;;;;;;;21.50;19.20;;;14.90;99.90;;;;;;5036822;28;20175;-69
2021/05/16 04:56:12;;;;;;;27.40;24.00;;;14.90;99.90;;;;;;5068737;28;20722;-69
2021/05/16 04:58:38;;;;;;;25.17;22.50;;;14.90;99.90;;;;;;5036682;28;20525;-69
2021/05/16 05:01:05;;;;;;;26.80;23.10;;;15.00;99.90;;;;;;5036703;28;20171;-68
2021/05/16 05:03:31;;;;;;;24.33;21.83;;;15.10;99.90;;;;;;5036563;28;20286;-67
2021/05/16 05:05:57;;;;;;;26.60;22.10;;;15.20;99.90;;;;;;5036632;28;20416;-66
2021/05/16 05:08:23;;;;;;;24.03;20.67;;;15.10;99.90;;;;;;5036367;28;20467;-68
2021/05/16 05:10:49;;;;;;;23.93;21.53;;;15.10;99.90;;;;;;5036551;28;20185;-69
2021/05/16 05:13:14;;;;;;;24.07;21.57;;;15.20;99.90;;;;;;5036390;28;20940;-70
2021/05/16 05:15:40;;;;;;;23.57;19.80;;;15.30;99.90;;;;;;5036476;28;20418;-67
2021/05/16 05:18:06;;;;;;;23.10;19.90;;;15.20;99.90;;;;;;5036167;28;20226;-67
2021/05/16 05:20:32;;;;;;;22.80;20.40;;;15.30;99.90;;;;;;5036253;28;20167;-67
2021/05/16 05:22:58;;;;;;;21.67;19.37;;;15.30;99.90;;;;;;5035113;28;20936;-68
2021/05/16 05:25:24;;;;;;;20.47;18.37;;;15.40;99.90;;;;;;5036145;28;20395;-67
2021/05/16 05:27:49;;;;;;;20.17;18.17;;;15.30;99.90;;;;;;5036211;28;20218;-68
2021/05/16 05:30:15;;;;;;;21.93;19.53;;;15.30;99.90;;;;;;5036180;28;20410;-68
2021/05/16 05:32:41;;;;;;;21.37;19.03;;;15.20;99.90;;;;;;5036463;28;20202;-67
2021/05/16 05:35:07;;;;;;;24.03;20.50;;;15.20;99.90;;;;;;5035977;28;20454;-69
2021/05/16 05:37:33;;;;;;;23.00;19.77;;;15.20;99.90;;;;;;5036266;28;20225;-67
2021/05/16 05:39:58;;;;;;;21.40;19.23;;;15.20;99.90;;;;;;5036027;28;20795;-68
2021/05/16 05:42:26;;;;;;;21.07;18.50;;;15.10;99.90;;;;;;5036268;28;20197;-69
2021/05/16 05:44:52;;;;;;;20.93;18.57;;;15.20;99.90;;;;;;5067975;28;20179;-68
2021/05/16 05:47:17;;;;;;;20.50;18.40;;;15.20;99.90;;;;;;5035993;28;20547;-69
2021/05/16 05:49:43;;;;;;;19.50;17.60;;;15.20;99.90;;;;;;5035814;28;20518;-69
2021/05/16 05:52:08;;;;;;;20.03;16.47;;;15.10;99.90;;;;;;5036057;28;20194;-67
2021/05/16 05:54:35;;;;;;;19.17;17.07;;;15.20;99.90;;;;;;5035703;28;20178;-70
2021/05/16 05:57:01;;;;;;;18.97;16.10;;;15.30;99.90;;;;;;5035775;28;20211;-67
2021/05/16 05:59:26;;;;;;;18.30;16.33;;;15.40;99.90;;;;;;5035626;28;20419;-68
2021/05/16 06:01:52;;;;;;;16.70;15.00;;;15.40;99.90;;;;;;5035844;28;20435;-67
2021/05/16 06:04:18;;;;;;;14.30;12.90;;;15.50;99.90;;;;;;5035401;28;20178;-69
2021/05/16 06:06:43;;;;;;;14.77;12.97;;;15.40;99.90;;;;;;5035676;28;20194;-67
2021/05/16 06:09:09;;;;;;;13.27;11.87;;;15.40;99.90;;;;;;5033071;28;20358;-67
2021/05/16 06:11:34;;;;;;;12.57;11.30;;;15.30;99.90;;;;;;5035574;28;20207;-69
2021/05/16 06:14:00;;;;;;;11.70;10.10;;;15.40;99.90;;;;;;5067237;28;20710;-69
2021/05/16 06:16:26;;;;;;;12.53;11.00;;;15.40;99.90;;;;;;5034000;28;20214;-69
2021/05/16 06:18:51;;;;;;;11.63;10.23;;;15.40;99.90;;;;;;5035272;28;20313;-68
2021/05/16 06:21:17;;;;;;;11.07;9.77;;;15.50;99.90;;;;;;5035152;28;20182;-68
2021/05/16 06:24:02;;;;;;;9.60;8.43;;;15.60;99.90;;;;;;5035161;28;20183;-69
2021/05/16 06:26:28;;;;;;;10.70;9.60;;;15.60;99.90;;;;;;5034220;28;20182;-69
2021/05/16 06:28:54;;;;;;;12.23;10.60;;;15.70;99.90;;;;;;5035037;28;20916;-67
2021/05/16 06:31:20;;;;;;;11.80;10.60;;;15.70;99.90;;;;;;5035069;28;20434;-67
2021/05/16 06:33:46;;;;;;;11.70;9.10;;;15.80;99.90;;;;;;5034846;28;20663;-67
2021/05/16 06:36:11;;;;;;;10.70;9.60;;;15.80;99.90;;;;;;5033372;28;20459;-69
2021/05/16 06:38:37;;;;;;;11.50;10.37;;;15.90;99.90;;;;;;5034845;28;20202;-69
2021/05/16 06:41:03;;;;;;;12.43;9.40;;;15.90;99.90;;;;;;5034801;28;20256;-67
2021/05/16 06:43:29;;;;;;;9.87;7.87;;;15.90;99.90;;;;;;5034688;28;20463;-69
2021/05/16 06:45:54;;;;;;;9.07;8.27;;;16.00;99.90;;;;;;5034801;28;20174;-68
2021/05/16 06:48:20;;;;;;;7.80;7.03;;;16.00;99.90;;;;;;5034668;28;20190;-67
2021/05/16 06:50:46;;;;;;;8.07;7.27;;;15.90;99.90;;;;;;5034866;28;20552;-69
2021/05/16 06:53:11;;;;;;;7.50;6.80;;;16.00;99.90;;;;;;5066377;28;20201;-69
2021/05/16 06:55:37;;;;;;;8.63;7.00;;;16.00;99.90;;;;;;5034650;28;20177;-67
2021/05/16 06:58:04;;;;;;;7.70;7.00;;;16.00;99.90;;;;;;5034309;28;20293;-68
2021/05/16 07:00:30;;;;;;;7.70;7.00;;;16.10;99.90;;;;;;5034450;28;20411;-68
2021/05/16 07:02:56;;;;;;;5.77;5.27;;;16.10;99.90;;;;;;5034306;28;20810;-68
2021/05/16 07:05:22;;;;;;;6.27;5.60;;;16.10;99.90;;;;;;5034245;28;20392;-67
2021/05/16 07:07:47;;;;;;;5.60;5.10;;;16.00;99.90;;;;;;5065998;28;20234;-67
2021/05/16 07:10:13;;;;;;;6.27;5.67;;;16.00;99.90;;;;;;5066226;28;20210;-69
2021/05/16 07:12:38;;;;;;;6.20;5.60;;;16.00;99.90;;;;;;5034628;28;20202;-67
2021/05/16 07:15:05;;;;;;;6.20;4.97;;;16.00;99.90;;;;;;5034185;28;20175;-69
2021/05/16 07:17:30;;;;;;;6.27;5.00;;;16.10;99.90;;;;;;5034427;28;20226;-68
2021/05/16 07:19:56;;;;;;;6.40;5.23;;;15.90;99.90;;;;;;5034098;28;20936;-69
2021/05/16 07:22:21;;;;;;;7.23;6.30;;;16.00;99.90;;;;;;5032888;28;20194;-67
2021/05/16 07:24:47;;;;;;;78.60;48.90;;;16.00;99.90;;;;;;5034143;28;20171;-67
2021/05/16 07:27:13;;;;;;;53.40;41.23;;;16.00;99.90;;;;;;5033795;28;20236;-69
2021/05/16 07:29:39;;;;;;;9.87;8.87;;;16.00;99.90;;;;;;5032738;28;20193;-69
2021/05/16 07:32:05;;;;;;;7.93;7.17;;;16.10;99.90;;;;;;5034224;28;20221;-69
2021/05/16 07:34:30;;;;;;;7.73;6.90;;;16.10;99.90;;;;;;5032607;28;20502;-68
2021/05/16 07:36:56;;;;;;;8.23;7.00;;;16.30;99.90;;;;;;5033976;28;20226;-69
2021/05/16 07:39:22;;;;;;;6.80;6.10;;;16.40;99.90;;;;;;5033052;28;20590;-68
2021/05/16 07:41:47;;;;;;;8.03;6.40;;;16.30;99.90;;;;;;5034018;28;20285;-67
2021/05/16 07:44:13;;;;;;;8.80;7.90;;;16.40;99.90;;;;;;5065249;28;20225;-69
2021/05/16 07:46:38;;;;;;;8.00;7.17;;;16.40;99.90;;;;;;5033372;28;20269;-67
2021/05/16 07:49:04;;;;;;;7.90;7.10;;;16.30;99.90;;;;;;5032474;28;20174;-68
2021/05/16 07:51:29;;;;;;;9.00;7.10;;;16.20;99.90;;;;;;5033869;28;20244;-67
2021/05/16 07:53:56;;;;;;;9.77;7.53;;;16.30;99.90;;;;;;5033707;28;20175;-69
2021/05/16 07:56:22;;;;;;;8.47;7.67;;;16.50;99.90;;;;;;5033506;28;20691;-67
2021/05/16 07:58:48;;;;;;;7.60;6.90;;;16.50;99.90;;;;;;5033626;28;20404;-67
2021/05/16 08:01:14;;;;;;;8.80;7.70;;;16.60;99.90;;;;;;5033566;28;20416;-67
2021/05/16 08:03:39;;;;;;;6.80;5.90;;;16.70;99.90;;;;;;5033641;28;20170;-70
2021/05/16 08:06:05;;;;;;;7.23;6.60;;;16.70;99.90;;;;;;5032390;28;20301;-67
2021/05/16 08:08:31;;;;;;;5.80;4.57;;;16.70;99.90;;;;;;5033260;28;20219;-69
2021/05/16 08:10:56;;;;;;;5.27;4.63;;;16.70;99.90;;;;;;5033642;28;20424;-69
2021/05/16 08:13:22;;;;;;;5.37;4.70;;;16.70;99.90;;;;;;5033408;28;20198;-69
2021/05/16 08:15:47;;;;;;;5.50;5.10;;;16.60;99.90;;;;;;5033576;28;20179;-70
2021/05/16 08:18:13;;;;;;;4.80;4.30;;;16.60;99.90;;;;;;5033279;28;20753;-69
2021/05/16 08:20:39;;;;;;;4.87;4.47;;;16.60;99.90;;;;;;5033441;28;20186;-67
2021/05/16 08:23:04;;;;;;;4.30;3.83;;;16.60;99.90;;;;;;5033346;28;20194;-67
2021/05/16 08:25:31;;;;;;;6.43;4.40;;;16.60;99.90;;;;;;5033387;28;20181;-69
2021/05/16 08:27:58;;;;;;;6.80;4.80;;;16.60;99.90;;;;;;5033336;28;20591;-69
2021/05/16 08:30:23;;;;;;;4.83;4.30;;;16.60;99.90;;;;;;5033278;28;20816;-69
2021/05/16 08:32:49;;;;;;;4.87;4.37;;;16.60;99.90;;;;;;5033294;28;20424;-69
2021/05/16 08:35:15;;;;;;;5.20;4.57;;;16.80;99.90;;;;;;5033235;28;20213;-68
2021/05/16 08:37:41;;;;;;;9.50;7.73;;;16.80;99.90;;;;;;5032071;28;20292;-69
2021/05/16 08:40:08;;;;;;;5.73;5.20;;;16.70;99.90;;;;;;5033261;28;20418;-68
2021/05/16 08:42:34;;;;;;;9.10;7.97;;;16.80;99.90;;;;;;5033586;28;20439;-67
2021/05/16 08:45:00;;;;;;;7.70;6.60;;;16.60;99.90;;;;;;5033212;28;20411;-69
2021/05/16 08:47:26;;;;;;;5.60;5.10;;;16.50;99.90;;;;;;5033041;28;20199;-69
2021/05/16 08:49:52;;;;;;;11.13;5.50;;;16.50;99.90;;;;;;5033147;28;20175;-68
2021/05/16 08:52:17;;;;;;;7.60;6.90;;;16.50;99.90;;;;;;5033349;28;20203;-67
2021/05/16 08:54:45;;;;;;;10.47;8.20;;;16.50;99.90;;;;;;5033173;28;20403;-70
2021/05/16 08:57:11;;;;;;;5.50;5.00;;;16.70;99.90;;;;;;5034676;28;20308;-67
2021/05/16 09:00:12;;;;;;;5.70;5.20;;;16.90;99.90;;;;;;5036701;28;20961;-68
2021/05/16 09:03:02;;;;;;;5.03;3.80;;;17.00;99.90;;;;;;5037247;28;20447;-69
2021/05/16 09:05:35;;;;;;;5.03;3.90;;;17.00;99.90;;;;;;5036566;28;20411;-70
2021/05/16 09:08:12;;;;;;;3.63;3.30;;;17.00;99.90;;;;;;5036155;28;20455;-70
2021/05/16 09:10:49;;;;;;;5.10;4.00;;;17.00;99.90;;;;;;5036487;28;20435;-69
2021/05/16 09:13:20;;;;;;;7.20;4.33;;;16.80;99.90;;;;;;5068384;28;20423;-67
2021/05/16 09:16:10;;;;;;;4.23;2.97;;;16.90;99.90;;;;;;5036583;28;20416;-67
2021/05/16 09:18:50;;;;;;;7.90;3.87;;;16.90;99.90;;;;;;5036541;28;20416;-67
2021/05/16 09:21:28;;;;;;;2.70;2.50;;;17.00;99.90;;;;;;5036409;28;20518;-66
2021/05/16 09:24:00;;;;;;;2.97;2.77;;;16.90;99.90;;;;;;5036338;28;20735;-69
2021/05/16 09:26:26;;;;;;;3.47;3.17;;;17.00;99.90;;;;;;5036521;28;20553;-67
2021/05/16 09:28:53;;;;;;;3.63;3.03;;;17.00;99.90;;;;;;5036173;28;20423;-68
2021/05/16 09:31:34;;;;;;;4.40;2.80;;;17.00;99.90;;;;;;5036168;28;20432;-69
2021/05/16 09:34:05;;;;;;;4.97;3.27;;;17.10;99.90;;;;;;5036155;28;20400;-69
2021/05/16 09:36:34;;;;;;;3.60;3.07;;;17.10;99.90;;;;;;5036228;28;20483;-69
2021/05/16 09:39:20;;;;;;;4.80;3.40;;;17.10;99.90;;;;;;5035984;28;20756;-69
2021/05/16 09:42:07;;;;;;;3.70;3.30;;;17.20;99.90;;;;;;5068216;28;20448;-67
2021/05/16 09:44:36;;;;;;;3.60;3.30;;;17.00;99.90;;;;;;5035934;28;20415;-69
2021/05/16 09:47:15;;;;;;;3.30;3.00;;;16.90;99.90;;;;;;5036049;28;20447;-69
2021/05/16 09:49:43;;;;;;;3.83;3.53;;;16.90;99.90;;;;;;5035832;28;20459;-67
2021/05/16 09:52:11;;;;;;;4.63;4.17;;;17.00;99.90;;;;;;5034659;28;20509;-69
2021/05/16 09:54:58;;;;;;;3.43;3.23;;;17.20;99.90;;;;;;5035654;28;20408;-66
2021/05/16 09:57:32;;;;;;;4.33;3.40;;;17.10;99.90;;;;;;5035947;28;20482;-68
2021/05/16 09:59:58;;;;;;;3.77;3.37;;;17.10;99.90;;;;;;5034419;28;20829;-69
2021/05/16 10:02:27;;;;;;;5.33;3.87;;;17.10;99.90;;;;;;5036102;28;20853;-68
2021/05/16 10:04:53;;;;;;;4.63;3.73;;;17.10;99.90;;;;;;5035547;28;20487;-69
2021/05/16 10:07:23;;;;;;;4.97;4.17;;;17.00;99.90;;;;;;5035024;28;20856;-68
2021/05/16 10:09:51;;;;;;;4.70;4.10;;;16.90;99.90;;;;;;5035078;28;20809;-68
2021/05/16 10:12:21;;;;;;;4.63;4.23;;;17.00;99.90;;;;;;5035628;28;20456;-69
2021/05/16 10:14:50;;;;;;;4.40;3.80;;;17.10;99.90;;;;;;5035452;28;20396;-69
2021/05/16 10:17:18;;;;;;;5.33;4.27;;;17.30;99.90;;;;;;5035617;28;20509;-70
2021/05/16 10:19:44;;;;;;;4.47;4.17;;;17.40;99.90;;;;;;5035268;28;20383;-67
2021/05/16 10:22:11;;;;;;;6.20;4.20;;;17.30;99.90;;;;;;5035497;28;20462;-68
2021/05/16 10:24:44;;;;;;;6.03;4.93;;;17.10;99.90;;;;;;5035130;28;20408;-68
2021/05/16 10:27:23;;;;;;;4.70;4.30;;;17.00;99.90;;;;;;5035375;28;20766;-69
2021/05/16 10:29:49;;;;;;;5.70;4.90;;;17.10;99.90;;;;;;5067151;28;20526;-67
2021/05/16 10:32:22;;;;;;;5.43;5.03;;;17.10;99.90;;;;;;5033835;28;20816;-70
2021/05/16 10:34:59;;;;;;;4.70;4.30;;;17.00;99.90;;;;;;5034947;28;20408;-69
2021/05/16 10:37:38;;;;;;;4.60;4.30;;;17.10;99.90;;;;;;5067126;28;20490;-68
2021/05/16 10:40:26;;;;;;;5.90;5.37;;;17.10;99.90;;;;;;5033528;28;20505;-69
2021/05/16 10:42:55;;;;;;;11.73;5.00;;;17.20;99.90;;;;;;5034349;28;20921;-67
2021/05/16 10:45:32;;;;;;;3.50;3.20;;;17.30;99.90;;;;;;5066611;28;20416;-68
2021/05/16 10:48:12;;;;;;;2.53;2.33;;;17.20;99.90;;;;;;5034655;28;20431;-67
2021/05/16 10:50:42;;;;;;;2.93;2.27;;;17.20;99.90;;;;;;5066620;28;20478;-68
2021/05/16 10:53:19;;;;;;;2.50;2.33;;;17.30;99.90;;;;;;5034423;28;20456;-69
2021/05/16 10:55:49;;;;;;;1.67;1.57;;;17.50;99.90;;;;;;5034791;28;20431;-68
2021/05/16 10:58:33;;;;;;;3.07;1.80;;;17.80;99.90;;;;;;5033085;28;20475;-69
2021/05/16 11:01:04;;;;;;;2.60;1.93;;;18.10;99.90;;;;;;5034432;28;20911;-67
2021/05/16 11:03:50;;;;;;;3.40;1.90;;;17.90;99.90;;;;;;5034282;28;20424;-70
2021/05/16 11:06:18;;;;;;;2.07;1.87;;;17.90;99.90;;;;;;5034491;28;20509;-69
2021/05/16 11:08:50;;;;;;;2.67;2.43;;;18.00;99.90;;;;;;5034261;28;20463;-66
2021/05/16 11:11:55;;;;;;;1.60;1.50;;;17.60;99.90;;;;;;5032982;28;20428;-69
2021/05/16 11:14:31;;;;;;;2.23;1.87;;;17.20;99.90;;;;;;5032324;28;20424;-69
2021/05/16 11:17:02;;;;;;;3.90;1.80;;;17.10;99.90;;;;;;5034085;28;20855;-70
2021/05/16 11:19:30;;;;;;;4.30;2.13;;;17.40;99.90;;;;;;5066217;28;20408;-67
2021/05/16 11:21:57;;;;;;;3.10;2.30;;;17.10;99.90;;;;;;5033618;28;20509;-67
2021/05/16 11:24:45;;;;;;;3.17;2.57;;;17.10;99.90;;;;;;5034046;28;20406;-68
2021/05/16 11:27:28;;;;;;;8.13;2.53;;;17.00;99.90;;;;;;5034468;28;20435;-68
2021/05/16 11:29:59;;;;;;;3.70;2.80;;;17.20;99.90;;;;;;5033968;28;20396;-69
2021/05/16 11:32:31;;;;;;;2.90;2.50;;;17.10;99.90;;;;;;5034255;28;20467;-69
2021/05/16 11:35:23;;;;;;;2.87;2.20;;;17.20;99.90;;;;;;5065931;28;20797;-70
2021/05/16 11:37:52;;;;;;;3.00;2.80;;;17.30;99.90;;;;;;5033814;28;20479;-69
2021/05/16 11:40:35;;;;;;;3.40;2.57;;;17.30;99.90;;;;;;5033818;28;20396;-67
2021/05/16 11:43:06;;;;;;;4.00;3.70;;;17.40;99.90;;;;;;5033710;28;20446;-68
2021/05/16 11:45:38;;;;;;;5.37;3.13;;;17.10;99.90;;;;;;5033751;28;20408;-68
2021/05/16 11:48:05;;;;;;;3.40;2.93;;;17.00;99.90;;;;;;5063748;28;20508;-67
2021/05/16 11:50:38;;;;;;;3.20;2.90;;;17.00;99.90;;;;;;5032113;28;20386;-68
2021/05/16 11:53:05;;;;;;;2.83;2.33;;;16.90;99.90;;;;;;5033157;28;20416;-69
2021/05/16 11:55:30;;;;;;;2.50;2.23;;;16.70;99.90;;;;;;5033591;28;20422;-67
2021/05/16 11:57:56;;;;;;;3.83;2.90;;;16.60;99.90;;;;;;5033633;28;20570;-68
2021/05/16 12:00:22;;;;;;;6.77;2.87;;;16.70;99.90;;;;;;5033295;28;20178;-67
2021/05/16 12:02:47;;;;;;;5.70;2.50;;;16.80;99.90;;;;;;5033419;28;20241;-69
2021/05/16 12:05:25;;;;;;;3.47;2.40;;;16.80;99.90;;;;;;5031700;28;20400;-69
2021/05/16 12:07:51;;;;;;;7.73;3.60;;;16.90;99.90;;;;;;5031198;28;20221;-69
2021/05/16 12:10:20;;;;;;;3.60;2.77;;;17.10;99.90;;;;;;5031380;28;20407;-70
2021/05/16 12:12:46;;;;;;;2.73;2.50;;;17.20;99.90;;;;;;5030059;28;20228;-67
2021/05/16 12:15:12;;;;;;;5.40;2.80;;;17.30;99.90;;;;;;5063352;28;20900;-70
2021/05/16 12:17:38;;;;;;;2.83;2.50;;;17.60;99.90;;;;;;5031684;28;20582;-69
2021/05/16 12:20:06;;;;;;;3.13;2.50;;;17.80;99.90;;;;;;5047290;28;20415;-70
2021/05/16 12:22:37;;;;;;;3.63;2.50;;;18.40;99.90;;;;;;5033875;28;20456;-70
2021/05/16 12:25:07;;;;;;;4.30;3.23;;;18.80;99.90;;;;;;5065414;28;20772;-69
2021/05/16 12:27:33;;;;;;;3.20;2.10;;;18.70;99.90;;;;;;5033792;28;20432;-69
2021/05/16 12:29:59;;;;;;;3.27;2.73;;;18.90;99.90;;;;;;5033390;28;20414;-69
2021/05/16 12:32:27;;;;;;;4.50;2.40;;;19.10;99.90;;;;;;5035572;28;20451;-67
2021/05/16 12:34:53;;;;;;;3.43;2.47;;;19.40;99.90;;;;;;5037215;28;20494;-68
2021/05/16 12:37:22;;;;;;;2.37;2.17;;;19.50;99.90;;;;;;5037403;28;20824;-69
2021/05/16 12:39:49;;;;;;;4.07;2.80;;;19.30;99.90;;;;;;5037092;28;20964;-70